createdAt,value
2023-04-22T00:00:56.879Z,1.37
2023-04-22T00:01:56.881Z,1.39
2023-04-22T00:02:56.974Z,1.36
2023-04-22T00:03:57.281Z,1.37
2023-04-22T00:04:57.055Z,1.36
2023-04-22T00:05:57.180Z,1.37
2023-04-22T00:06:56.898Z,1.36
2023-04-22T00:07:56.944Z,1.38
2023-04-22T00:08:56.931Z,1.37
2023-04-22T00:09:56.955Z,1.37
2023-04-22T00:10:56.966Z,1.37
2023-04-22T00:11:56.957Z,1.37
2023-04-22T00:12:57.020Z,1.36
2023-04-22T00:13:57.013Z,1.35
2023-04-22T00:14:57.000Z,1.39
2023-04-22T00:15:57.054Z,1.37
2023-04-22T00:16:57.034Z,1.36
2023-04-22T00:17:57.090Z,1.35
2023-04-22T00:18:57.044Z,1.36
2023-04-22T00:19:57.054Z,1.37
2023-04-22T00:20:57.092Z,1.35
2023-04-22T00:21:57.106Z,1.36
2023-04-22T00:22:57.106Z,1.36
2023-04-22T00:23:57.123Z,1.35
2023-04-22T00:24:57.104Z,1.38
2023-04-22T00:25:57.125Z,1.37
2023-04-22T00:26:57.153Z,1.36
2023-04-22T00:27:57.173Z,1.37
2023-04-22T00:28:57.179Z,1.37
2023-04-22T00:29:57.191Z,1.36
2023-04-22T00:30:57.221Z,1.36
2023-04-22T00:31:57.416Z,1.37
2023-04-22T00:32:57.411Z,1.35
2023-04-22T00:33:57.252Z,1.36
2023-04-22T00:34:57.268Z,1.35
2023-04-22T00:35:57.295Z,1.34
2023-04-22T00:36:57.293Z,1.35
2023-04-22T00:37:57.344Z,1.34
2023-04-22T00:38:57.334Z,1.36
2023-04-22T00:39:57.328Z,1.35
2023-04-22T00:40:57.369Z,1.35
2023-04-22T00:41:57.360Z,1.35
2023-04-22T00:42:57.371Z,1.38
2023-04-22T00:43:57.417Z,1.35
2023-04-22T00:44:57.429Z,1.37
2023-04-22T00:45:57.426Z,1.35
2023-04-22T00:46:57.494Z,1.36
2023-04-22T00:47:57.463Z,1.35
2023-04-22T00:48:57.453Z,1.35
2023-04-22T00:49:57.500Z,1.35
2023-04-22T00:50:57.519Z,1.35
2023-04-22T00:51:57.518Z,1.35
2023-04-22T00:52:57.544Z,1.34
2023-04-22T00:53:57.527Z,1.36
2023-04-22T00:54:57.562Z,1.36
2023-04-22T00:55:57.563Z,1.35
2023-04-22T00:56:57.606Z,1.34
2023-04-22T00:57:57.621Z,1.35
2023-04-22T00:58:57.623Z,1.35
2023-04-22T00:59:57.668Z,1.35
2023-04-22T01:00:57.697Z,1.35
2023-04-22T01:01:57.711Z,1.34
2023-04-22T01:02:57.934Z,1.35
2023-04-22T01:03:57.896Z,1.36
2023-04-22T01:04:57.740Z,1.37
2023-04-22T01:05:57.737Z,1.35
2023-04-22T01:06:57.778Z,1.36
2023-04-22T01:07:57.824Z,1.34
2023-04-22T01:08:57.789Z,1.36
2023-04-22T01:09:57.828Z,1.36
2023-04-22T01:10:57.825Z,1.35
2023-04-22T01:11:57.862Z,1.35
2023-04-22T01:12:57.867Z,1.34
2023-04-22T01:13:57.876Z,1.33
2023-04-22T01:14:57.939Z,1.33
2023-04-22T01:15:57.923Z,1.34
2023-04-22T01:16:57.978Z,1.35
2023-04-22T01:17:58.041Z,1.33
2023-04-22T01:18:58.009Z,1.35
2023-04-22T01:19:58.025Z,1.33
2023-04-22T01:20:58.029Z,1.32
2023-04-22T01:21:58.035Z,1.33
2023-04-22T01:22:58.122Z,1.33
2023-04-22T01:23:58.118Z,1.36
2023-04-22T01:24:58.126Z,1.33
2023-04-22T01:25:58.155Z,1.34
2023-04-22T01:26:58.178Z,1.34
2023-04-22T01:27:58.229Z,1.34
2023-04-22T01:28:58.224Z,1.37
2023-04-22T01:29:58.232Z,1.34
2023-04-22T01:30:58.255Z,1.35
2023-04-22T01:31:58.260Z,1.33
2023-04-22T01:32:58.378Z,1.33
2023-04-22T01:33:58.360Z,1.34
2023-04-22T01:34:58.336Z,1.35
2023-04-22T01:35:58.383Z,1.35
2023-04-22T01:36:58.398Z,1.34
2023-04-22T01:37:58.375Z,1.32
2023-04-22T01:38:58.433Z,1.33
2023-04-22T01:39:58.431Z,1.31
2023-04-22T01:40:58.473Z,1.32
2023-04-22T01:41:58.503Z,1.32
2023-04-22T01:42:58.515Z,1.30
2023-04-22T01:43:58.545Z,1.33
2023-04-22T01:44:58.567Z,1.34
2023-04-22T01:45:58.635Z,1.34
2023-04-22T01:46:58.603Z,1.34
2023-04-22T01:47:58.674Z,1.32
2023-04-22T01:48:58.666Z,1.32
2023-04-22T01:49:58.682Z,1.32
2023-04-22T01:50:58.723Z,1.33
2023-04-22T01:51:58.707Z,1.34
2023-04-22T01:52:58.711Z,1.32
2023-04-22T01:53:58.764Z,1.32
2023-04-22T01:54:58.793Z,1.32
2023-04-22T01:55:58.833Z,1.32
2023-04-22T01:56:58.822Z,1.34
2023-04-22T01:57:58.873Z,1.33
2023-04-22T01:58:58.999Z,1.33
2023-04-22T01:59:58.912Z,1.33
2023-04-22T02:00:58.997Z,1.33
2023-04-22T02:01:59.012Z,1.31
2023-04-22T02:02:59.151Z,1.32
2023-04-22T02:03:59.022Z,1.32
2023-04-22T02:04:59.123Z,1.31
2023-04-22T02:05:59.024Z,1.31
2023-04-22T02:06:59.089Z,1.30
2023-04-22T02:07:59.061Z,1.30
2023-04-22T02:08:59.112Z,1.30
2023-04-22T02:09:59.127Z,1.29
2023-04-22T02:10:59.167Z,1.31
2023-04-22T02:11:59.198Z,1.32
2023-04-22T02:12:59.214Z,1.30
2023-04-22T02:13:59.251Z,1.30
2023-04-22T02:14:59.254Z,1.32
2023-04-22T02:15:59.348Z,1.31
2023-04-22T02:16:59.288Z,1.33
2023-04-22T02:17:59.305Z,1.32
2023-04-22T02:18:59.339Z,1.29
2023-04-22T02:19:59.428Z,1.31
2023-04-22T02:20:59.395Z,1.30
2023-04-22T02:21:59.405Z,1.28
2023-04-22T02:22:59.439Z,1.30
2023-04-22T02:23:59.434Z,1.30
2023-04-22T02:24:59.469Z,1.31
2023-04-22T02:25:59.472Z,1.30
2023-04-22T02:26:59.523Z,1.29
2023-04-22T02:27:59.546Z,1.29
2023-04-22T02:28:59.522Z,1.29
2023-04-22T02:29:59.573Z,1.31
2023-04-22T02:30:59.604Z,1.30
2023-04-22T02:31:59.576Z,1.29
2023-04-22T02:32:59.692Z,1.30
2023-04-22T02:33:59.657Z,1.29
2023-04-22T02:34:59.681Z,1.29
2023-04-22T02:35:59.660Z,1.28
2023-04-22T02:36:59.713Z,1.29
2023-04-22T02:37:59.694Z,1.31
2023-04-22T02:38:59.750Z,1.31
2023-04-22T02:39:59.770Z,1.30
2023-04-22T02:40:59.803Z,1.28
2023-04-22T02:41:59.813Z,1.30
2023-04-22T02:42:59.842Z,1.29
2023-04-22T02:43:59.873Z,1.27
2023-04-22T02:44:59.916Z,1.31
2023-04-22T02:45:59.929Z,1.30
2023-04-22T02:46:59.976Z,1.28
2023-04-22T02:48:00.022Z,1.28
2023-04-22T02:48:59.948Z,1.32
2023-04-22T02:49:59.957Z,1.30
2023-04-22T02:51:00.035Z,1.28
2023-04-22T02:52:00.018Z,1.30
2023-04-22T02:53:00.051Z,1.30
2023-04-22T02:54:00.090Z,1.28
2023-04-22T02:55:00.062Z,1.30
2023-04-22T02:56:00.151Z,1.30
2023-04-22T02:57:00.102Z,1.28
2023-04-22T02:58:00.193Z,1.28
2023-04-22T02:59:00.160Z,1.27
2023-04-22T03:00:00.236Z,1.28
2023-04-22T03:01:00.259Z,1.29
2023-04-22T03:02:00.312Z,1.28
2023-04-22T03:03:00.479Z,1.29
2023-04-22T03:04:00.754Z,1.28
2023-04-22T03:05:00.320Z,1.30
2023-04-22T03:06:00.325Z,1.29
2023-04-22T03:07:00.375Z,1.27
2023-04-22T03:08:00.374Z,1.28
2023-04-22T03:09:00.376Z,1.29
2023-04-22T03:10:00.460Z,1.28
2023-04-22T03:11:00.456Z,1.30
2023-04-22T03:12:00.471Z,1.30
2023-04-22T03:13:00.483Z,1.30
2023-04-22T03:14:00.515Z,1.29
2023-04-22T03:15:00.531Z,1.30
2023-04-22T03:16:00.584Z,1.27
2023-04-22T03:17:00.599Z,1.30
2023-04-22T03:18:00.651Z,1.29
2023-04-22T03:19:00.615Z,1.28
2023-04-22T03:20:00.623Z,1.29
2023-04-22T03:21:00.664Z,1.29
2023-04-22T03:22:00.685Z,1.29
2023-04-22T03:23:00.686Z,1.30
2023-04-22T03:24:00.742Z,1.28
2023-04-22T03:25:00.744Z,1.30
2023-04-22T03:26:00.769Z,1.29
2023-04-22T03:27:00.812Z,1.29
2023-04-22T03:28:00.821Z,1.28
2023-04-22T03:29:00.837Z,1.28
2023-04-22T03:30:00.855Z,1.29
2023-04-22T03:31:00.915Z,1.29
2023-04-22T03:32:00.938Z,1.29
2023-04-22T03:33:00.977Z,1.29
2023-04-22T03:34:00.986Z,1.28
2023-04-22T03:35:00.979Z,1.31
2023-04-22T03:36:01.021Z,1.29
2023-04-22T03:37:01.040Z,1.30
2023-04-22T03:38:01.025Z,1.28
2023-04-22T03:39:01.083Z,1.29
2023-04-22T03:40:01.070Z,1.30
2023-04-22T03:41:01.144Z,1.27
2023-04-22T03:42:01.166Z,1.28
2023-04-22T03:43:01.205Z,1.28
2023-04-22T03:44:02.035Z,1.27
2023-04-22T03:45:01.186Z,1.29
2023-04-22T03:46:01.305Z,1.28
2023-04-22T03:47:01.267Z,1.27
2023-04-22T03:48:01.348Z,1.28
2023-04-22T03:49:01.272Z,1.29
2023-04-22T03:50:01.318Z,1.28
2023-04-22T03:51:01.360Z,1.28
2023-04-22T03:52:01.386Z,1.29
2023-04-22T03:53:01.371Z,1.27
2023-04-22T03:54:01.423Z,1.28
2023-04-22T03:55:01.456Z,1.28
2023-04-22T03:56:01.497Z,1.28
2023-04-22T03:57:01.502Z,1.27
2023-04-22T03:58:01.462Z,1.29
2023-04-22T03:59:01.523Z,1.27
2023-04-22T04:00:01.516Z,1.28
2023-04-22T04:01:01.565Z,1.27
2023-04-22T04:02:01.591Z,1.27
2023-04-22T04:03:01.837Z,1.28
2023-04-22T04:04:01.876Z,1.29
2023-04-22T04:05:01.913Z,1.27
2023-04-22T04:06:01.791Z,1.27
2023-04-22T04:07:01.720Z,1.28
2023-04-22T04:08:01.746Z,1.28
2023-04-22T04:09:01.728Z,1.28
2023-04-22T04:10:01.799Z,1.27
2023-04-22T04:11:01.807Z,1.27
2023-04-22T04:12:01.814Z,1.25
2023-04-22T04:13:01.846Z,1.27
2023-04-22T04:14:01.877Z,1.26
2023-04-22T04:15:01.880Z,1.25
2023-04-22T04:16:01.977Z,1.28
2023-04-22T04:17:01.968Z,1.25
2023-04-22T04:18:02.014Z,1.26
2023-04-22T04:19:01.989Z,1.27
2023-04-22T04:20:02.089Z,1.25
2023-04-22T04:21:02.063Z,1.26
2023-04-22T04:22:02.223Z,1.26
2023-04-22T04:23:02.137Z,1.26
2023-04-22T04:24:02.176Z,1.24
2023-04-22T04:25:02.226Z,1.26
2023-04-22T04:26:02.222Z,1.26
2023-04-22T04:27:02.232Z,1.24
2023-04-22T04:28:02.255Z,1.24
2023-04-22T04:29:02.344Z,1.27
2023-04-22T04:30:02.321Z,1.24
2023-04-22T04:31:02.390Z,1.24
2023-04-22T04:32:02.376Z,1.26
2023-04-22T04:33:02.489Z,1.26
2023-04-22T04:34:02.424Z,1.24
2023-04-22T04:35:02.429Z,1.27
2023-04-22T04:36:02.485Z,1.26
2023-04-22T04:37:02.549Z,1.25
2023-04-22T04:38:02.565Z,1.25
2023-04-22T04:39:02.619Z,1.24
2023-04-22T04:40:02.594Z,1.23
2023-04-22T04:41:02.678Z,1.23
2023-04-22T04:42:02.654Z,1.24
2023-04-22T04:43:02.758Z,1.25
2023-04-22T04:44:02.733Z,1.25
2023-04-22T04:45:02.755Z,1.23
2023-04-22T04:46:02.759Z,1.24
2023-04-22T04:47:02.880Z,1.24
2023-04-22T04:48:02.937Z,1.24
2023-04-22T04:49:02.857Z,1.25
2023-04-22T04:50:02.905Z,1.25
2023-04-22T04:51:02.945Z,1.24
2023-04-22T04:52:02.933Z,1.24
2023-04-22T04:53:02.987Z,1.26
2023-04-22T04:54:03.025Z,1.24
2023-04-22T04:55:03.036Z,1.25
2023-04-22T04:56:03.081Z,1.25
2023-04-22T04:57:03.084Z,1.24
2023-04-22T04:58:03.124Z,1.26
2023-04-22T04:59:03.184Z,1.23
2023-04-22T05:00:03.192Z,1.23
2023-04-22T05:01:03.224Z,1.24
2023-04-22T05:02:03.284Z,1.23
2023-04-22T05:03:03.401Z,1.22
2023-04-22T05:04:03.551Z,1.22
2023-04-22T05:05:03.452Z,1.23
2023-04-22T05:06:03.388Z,1.23
2023-04-22T05:07:03.395Z,1.24
2023-04-22T05:08:03.393Z,1.23
2023-04-22T05:09:03.423Z,1.23
2023-04-22T05:10:03.475Z,1.23
2023-04-22T05:11:03.521Z,1.22
2023-04-22T05:12:03.511Z,1.24
2023-04-22T05:13:04.219Z,1.21
2023-04-22T05:14:03.625Z,1.24
2023-04-22T05:15:03.623Z,1.22
2023-04-22T05:16:03.690Z,1.23
2023-04-22T05:17:03.669Z,1.25
2023-04-22T05:18:03.761Z,1.23
2023-04-22T05:19:03.759Z,1.22
2023-04-22T05:20:03.739Z,1.22
2023-04-22T05:21:03.790Z,1.24
2023-04-22T05:22:03.818Z,1.23
2023-04-22T05:23:03.855Z,1.23
2023-04-22T05:24:03.879Z,1.25
2023-04-22T05:25:03.928Z,1.23
2023-04-22T05:26:03.936Z,1.25
2023-04-22T05:27:04.010Z,1.24
2023-04-22T05:28:04.021Z,1.22
2023-04-22T05:29:04.022Z,1.23
2023-04-22T05:30:04.071Z,1.24
2023-04-22T05:31:04.106Z,1.22
2023-04-22T05:32:04.156Z,1.23
2023-04-22T05:33:04.207Z,1.24
2023-04-22T05:34:04.166Z,1.23
2023-04-22T05:35:04.210Z,1.22
2023-04-22T05:36:04.207Z,1.21
2023-04-22T05:37:04.268Z,1.24
2023-04-22T05:38:04.252Z,1.22
2023-04-22T05:39:04.295Z,1.22
2023-04-22T05:40:04.288Z,1.22
2023-04-22T05:41:04.365Z,1.20
2023-04-22T05:42:04.331Z,1.24
2023-04-22T05:43:04.409Z,1.24
2023-04-22T05:44:04.402Z,1.21
2023-04-22T05:45:04.403Z,1.23
2023-04-22T05:46:04.515Z,1.21
2023-04-22T05:47:04.467Z,1.21
2023-04-22T05:48:04.555Z,1.21
2023-04-22T05:49:04.533Z,1.22
2023-04-22T05:50:04.566Z,1.21
2023-04-22T05:51:04.584Z,1.23
2023-04-22T05:52:04.634Z,1.24
2023-04-22T05:53:04.616Z,1.22
2023-04-22T05:54:04.631Z,1.19
2023-04-22T05:55:04.693Z,1.21
2023-04-22T05:56:04.694Z,1.22
2023-04-22T05:57:04.732Z,1.23
2023-04-22T05:58:04.723Z,1.20
2023-04-22T05:59:04.752Z,1.22
2023-04-22T06:00:04.826Z,1.20
2023-04-22T06:01:04.829Z,1.20
2023-04-22T06:02:04.892Z,1.20
2023-04-22T06:03:05.026Z,1.20
2023-04-22T06:04:05.052Z,1.21
2023-04-22T06:05:05.299Z,1.21
2023-04-22T06:06:05.137Z,1.21
2023-04-22T06:07:04.989Z,1.21
2023-04-22T06:08:04.994Z,1.21
2023-04-22T06:09:05.009Z,1.20
2023-04-22T06:10:05.729Z,1.20
2023-04-22T06:11:05.042Z,1.19
2023-04-22T06:12:05.077Z,1.20
2023-04-22T06:13:05.112Z,1.20
2023-04-22T06:14:05.156Z,1.20
2023-04-22T06:15:05.174Z,1.19
2023-04-22T06:16:05.290Z,1.21
2023-04-22T06:17:05.205Z,1.21
2023-04-22T06:18:05.218Z,1.21
2023-04-22T06:19:05.258Z,1.20
2023-04-22T06:20:05.274Z,1.20
2023-04-22T06:21:05.316Z,1.19
2023-04-22T06:22:05.303Z,1.21
2023-04-22T06:23:05.361Z,1.21
2023-04-22T06:24:05.399Z,1.19
2023-04-22T06:25:05.374Z,1.21
2023-04-22T06:26:05.426Z,1.21
2023-04-22T06:27:05.424Z,1.20
2023-04-22T06:28:05.456Z,1.20
2023-04-22T06:29:05.475Z,1.19
2023-04-22T06:30:05.569Z,1.19
2023-04-22T06:31:05.545Z,1.20
2023-04-22T06:32:05.518Z,1.20
2023-04-22T06:33:05.581Z,1.19
2023-04-22T06:34:07.310Z,1.19
2023-04-22T06:35:05.583Z,1.19
2023-04-22T06:36:05.584Z,1.20
2023-04-22T06:37:05.602Z,1.21
2023-04-22T06:38:05.646Z,1.19
2023-04-22T06:39:05.626Z,1.20
2023-04-22T06:40:05.653Z,1.19
2023-04-22T06:41:05.664Z,1.19
2023-04-22T06:42:05.680Z,1.18
2023-04-22T06:43:05.732Z,1.19
2023-04-22T06:44:05.739Z,1.20
2023-04-22T06:45:05.690Z,1.20
2023-04-22T06:46:05.718Z,1.22
2023-04-22T06:47:05.840Z,1.20
2023-04-22T06:48:05.792Z,1.20
2023-04-22T06:49:05.770Z,1.19
2023-04-22T06:50:05.782Z,1.18
2023-04-22T06:51:05.838Z,1.18
2023-04-22T06:52:05.782Z,1.19
2023-04-22T06:53:05.811Z,1.20
2023-04-22T06:54:05.846Z,1.19
2023-04-22T06:55:05.871Z,1.19
2023-04-22T06:56:05.857Z,1.20
2023-04-22T06:57:05.862Z,1.18
2023-04-22T06:58:05.875Z,1.18
2023-04-22T06:59:05.878Z,1.20
2023-04-22T07:00:05.889Z,1.17
2023-04-22T07:01:05.880Z,1.20
2023-04-22T07:02:06.032Z,1.20
2023-04-22T07:03:05.948Z,1.19
2023-04-22T07:04:05.921Z,1.20
2023-04-22T07:05:05.903Z,1.19
2023-04-22T07:06:05.923Z,1.19
2023-04-22T07:07:05.977Z,1.20
2023-04-22T07:08:05.968Z,1.19
2023-04-22T07:09:05.966Z,1.19
2023-04-22T07:10:05.946Z,1.19
2023-04-22T07:11:05.946Z,1.18
2023-04-22T07:12:05.968Z,1.18
2023-04-22T07:13:05.978Z,1.19
2023-04-22T07:14:05.995Z,1.19
2023-04-22T07:15:05.990Z,1.20
2023-04-22T07:16:06.051Z,1.18
2023-04-22T07:17:06.012Z,1.19
2023-04-22T07:18:06.017Z,1.19
2023-04-22T07:19:06.027Z,1.20
2023-04-22T07:20:06.031Z,1.19
2023-04-22T07:21:06.027Z,1.19
2023-04-22T07:22:06.027Z,1.20
2023-04-22T07:23:06.065Z,1.19
2023-04-22T07:24:06.050Z,1.16
2023-04-22T07:25:06.020Z,1.19
2023-04-22T07:26:06.071Z,1.18
2023-04-22T07:27:06.037Z,1.20
2023-04-22T07:28:06.066Z,1.19
2023-04-22T07:29:06.039Z,1.19
2023-04-22T07:30:06.077Z,1.20
2023-04-22T07:31:06.087Z,1.18
2023-04-22T07:32:06.159Z,1.18
2023-04-22T07:33:06.110Z,1.18
2023-04-22T07:34:06.081Z,1.20
2023-04-22T07:35:06.057Z,1.19
2023-04-22T07:36:06.039Z,1.18
2023-04-22T07:37:06.035Z,1.20
2023-04-22T07:38:07.323Z,1.17
2023-04-22T07:39:06.067Z,1.17
2023-04-22T07:40:06.023Z,1.19
2023-04-22T07:41:06.055Z,1.18
2023-04-22T07:42:06.041Z,1.18
2023-04-22T07:43:06.058Z,1.17
2023-04-22T07:44:06.016Z,1.18
2023-04-22T07:45:06.017Z,1.18
2023-04-22T07:46:06.067Z,1.18
2023-04-22T07:47:06.039Z,1.18
2023-04-22T07:48:06.074Z,1.18
2023-04-22T07:49:06.016Z,1.19
2023-04-22T07:50:06.014Z,1.17
2023-04-22T07:51:06.051Z,1.18
2023-04-22T07:52:06.066Z,1.18
2023-04-22T07:53:06.059Z,1.17
2023-04-22T07:54:06.010Z,1.17
2023-04-22T07:55:06.016Z,1.19
2023-04-22T07:56:06.024Z,1.18
2023-04-22T07:57:06.030Z,1.17
2023-04-22T07:58:06.010Z,1.18
2023-04-22T07:59:06.037Z,1.18
2023-04-22T08:00:06.042Z,1.17
2023-04-22T08:01:06.080Z,1.19
2023-04-22T08:02:06.083Z,1.17
2023-04-22T08:03:06.106Z,1.18
2023-04-22T08:04:06.314Z,1.16
2023-04-22T08:05:06.029Z,1.17
2023-04-22T08:06:06.012Z,1.18
2023-04-22T08:07:17.111Z,1.16
2023-04-22T08:08:07.002Z,1.16
2023-04-22T08:09:05.953Z,1.17
2023-04-22T08:10:05.979Z,1.17
2023-04-22T08:11:05.959Z,1.17
2023-04-22T08:12:05.990Z,1.18
2023-04-22T08:13:05.947Z,1.19
2023-04-22T08:14:05.945Z,1.19
2023-04-22T08:15:05.914Z,1.18
2023-04-22T08:16:05.967Z,1.18
2023-04-22T08:17:05.938Z,1.18
2023-04-22T08:18:06.034Z,1.18
2023-04-22T08:19:05.927Z,1.17
2023-04-22T08:20:07.819Z,1.16
2023-04-22T08:21:05.902Z,1.19
2023-04-22T08:22:05.875Z,1.18
2023-04-22T08:23:05.881Z,1.19
2023-04-22T08:24:05.862Z,1.18
2023-04-22T08:25:05.877Z,1.19
2023-04-22T08:26:05.938Z,1.19
2023-04-22T08:27:05.995Z,1.20
2023-04-22T08:28:05.990Z,1.19
2023-04-22T08:29:06.035Z,1.19
2023-04-22T08:30:06.068Z,1.19
2023-04-22T08:31:06.108Z,1.18
2023-04-22T08:32:06.145Z,1.21
2023-04-22T08:33:06.220Z,1.19
2023-04-22T08:34:06.294Z,1.20
2023-04-22T08:35:06.319Z,1.20
2023-04-22T08:36:06.388Z,1.19
2023-04-22T08:37:06.419Z,1.20
2023-04-22T08:38:06.502Z,1.20
2023-04-22T08:39:06.503Z,1.20
2023-04-22T08:40:06.564Z,1.20
2023-04-22T08:41:06.662Z,1.21
2023-04-22T08:42:06.716Z,1.20
2023-04-22T08:43:06.776Z,1.20
2023-04-22T08:44:06.834Z,1.20
2023-04-22T08:45:06.904Z,1.20
2023-04-22T08:46:06.986Z,1.21
2023-04-22T08:47:07.148Z,1.20
2023-04-22T08:48:07.046Z,1.21
2023-04-22T08:49:07.127Z,1.19
2023-04-22T08:50:07.151Z,1.23
2023-04-22T08:51:07.277Z,1.20
2023-04-22T08:52:07.276Z,1.21
2023-04-22T08:53:07.320Z,1.22
2023-04-22T08:54:07.434Z,1.21
2023-04-22T08:55:07.481Z,1.20
2023-04-22T08:56:07.514Z,1.23
2023-04-22T08:57:07.590Z,1.20
2023-04-22T08:58:07.665Z,1.20
2023-04-22T08:59:07.676Z,1.22
2023-04-22T09:00:07.745Z,1.21
2023-04-22T09:01:07.778Z,1.19
2023-04-22T09:02:08.004Z,1.20
2023-04-22T09:03:08.001Z,1.20
2023-04-22T09:04:08.031Z,1.22
2023-04-22T09:05:07.985Z,1.23
2023-04-22T09:06:08.074Z,1.21
2023-04-22T09:07:08.143Z,1.22
2023-04-22T09:08:08.155Z,1.20
2023-04-22T09:09:08.192Z,1.21
2023-04-22T09:10:08.298Z,1.20
2023-04-22T09:11:08.335Z,1.20
2023-04-22T09:12:08.365Z,1.20
2023-04-22T09:13:08.421Z,1.20
2023-04-22T09:14:08.468Z,1.18
2023-04-22T09:15:08.513Z,1.18
2023-04-22T09:16:08.558Z,1.19
2023-04-22T09:17:08.576Z,1.19
2023-04-22T09:18:08.627Z,1.18
2023-04-22T09:19:08.681Z,1.19
2023-04-22T09:20:08.763Z,1.18
2023-04-22T09:21:08.755Z,1.21
2023-04-22T09:22:08.790Z,1.19
2023-04-22T09:23:08.861Z,1.20
2023-04-22T09:24:08.902Z,1.19
2023-04-22T09:25:08.963Z,1.19
2023-04-22T09:26:08.976Z,1.18
2023-04-22T09:27:09.003Z,1.17
2023-04-22T09:28:09.072Z,1.20
2023-04-22T09:29:09.113Z,1.19
2023-04-22T09:30:09.155Z,1.19
2023-04-22T09:31:09.230Z,1.18
2023-04-22T09:32:09.302Z,1.17
2023-04-22T09:33:09.369Z,1.21
2023-04-22T09:34:09.354Z,1.19
2023-04-22T09:35:09.363Z,1.18
2023-04-22T09:36:09.422Z,1.18
2023-04-22T09:37:09.471Z,1.19
2023-04-22T09:38:09.491Z,1.18
2023-04-22T09:39:09.521Z,1.20
2023-04-22T09:40:09.585Z,1.19
2023-04-22T09:41:09.598Z,1.19
2023-04-22T09:42:09.598Z,1.19
2023-04-22T09:43:09.661Z,1.18
2023-04-22T09:44:09.700Z,1.16
2023-04-22T09:45:09.703Z,1.19
2023-04-22T09:46:09.768Z,1.17
2023-04-22T09:47:09.773Z,1.18
2023-04-22T09:48:09.859Z,1.18
2023-04-22T09:49:09.836Z,1.18
2023-04-22T09:50:09.878Z,1.18
2023-04-22T09:51:09.906Z,1.20
2023-04-22T09:52:09.916Z,1.19
2023-04-22T09:53:09.979Z,1.16
2023-04-22T09:54:10.040Z,1.16
2023-04-22T09:55:10.080Z,1.19
2023-04-22T09:56:10.052Z,1.15
2023-04-22T09:57:10.083Z,1.18
2023-04-22T09:58:10.128Z,1.19
2023-04-22T09:59:10.137Z,1.18
2023-04-22T10:00:10.179Z,1.18
2023-04-22T10:01:10.246Z,1.19
2023-04-22T10:02:10.311Z,1.18
2023-04-22T10:03:11.160Z,1.18
2023-04-22T10:04:10.323Z,1.17
2023-04-22T10:05:10.338Z,1.16
2023-04-22T10:06:10.320Z,1.17
2023-04-22T10:07:10.368Z,1.16
2023-04-22T10:08:10.450Z,1.18
2023-04-22T10:09:10.405Z,1.17
2023-04-22T10:10:10.426Z,1.18
2023-04-22T10:11:10.458Z,1.17
2023-04-22T10:12:10.441Z,1.16
2023-04-22T10:13:10.489Z,1.16
2023-04-22T10:14:10.535Z,1.16
2023-04-22T10:15:10.540Z,1.17
2023-04-22T10:16:10.553Z,1.18
2023-04-22T10:17:10.574Z,1.17
2023-04-22T10:18:10.581Z,1.18
2023-04-22T10:19:10.610Z,1.15
2023-04-22T10:20:10.670Z,1.16
2023-04-22T10:21:10.626Z,1.18
2023-04-22T10:22:10.689Z,1.15
2023-04-22T10:23:10.696Z,1.18
2023-04-22T10:24:10.678Z,1.17
2023-04-22T10:25:10.851Z,1.16
2023-04-22T10:26:10.714Z,1.17
2023-04-22T10:27:10.756Z,1.16
2023-04-22T10:28:10.778Z,1.16
2023-04-22T10:29:10.758Z,1.17
2023-04-22T10:30:10.789Z,1.17
2023-04-22T10:31:10.859Z,1.16
2023-04-22T10:32:11.143Z,1.16
2023-04-22T10:33:10.814Z,1.17
2023-04-22T10:34:10.827Z,1.15
2023-04-22T10:35:10.832Z,1.16
2023-04-22T10:36:10.867Z,1.15
2023-04-22T10:37:10.863Z,1.17
2023-04-22T10:38:10.894Z,1.16
2023-04-22T10:39:10.887Z,1.17
2023-04-22T10:40:10.903Z,1.15
2023-04-22T10:41:10.919Z,1.14
2023-04-22T10:42:10.904Z,1.14
2023-04-22T10:43:10.925Z,1.16
2023-04-22T10:44:10.933Z,1.17
2023-04-22T10:45:10.926Z,1.16
2023-04-22T10:46:10.993Z,1.15
2023-04-22T10:47:10.935Z,1.16
2023-04-22T10:48:11.006Z,1.15
2023-04-22T10:49:10.985Z,1.15
2023-04-22T10:50:10.999Z,1.15
2023-04-22T10:51:11.006Z,1.14
2023-04-22T10:52:11.023Z,1.16
2023-04-22T10:53:11.033Z,1.15
2023-04-22T10:54:11.015Z,1.15
2023-04-22T10:55:11.038Z,1.13
2023-04-22T10:56:11.036Z,1.14
2023-04-22T10:57:11.063Z,1.13
2023-04-22T10:58:11.050Z,1.14
2023-04-22T10:59:11.070Z,1.15
2023-04-22T11:00:11.100Z,1.15
2023-04-22T11:01:11.164Z,1.15
2023-04-22T11:02:11.118Z,1.16
2023-04-22T11:03:11.224Z,1.14
2023-04-22T11:04:11.160Z,1.13
2023-04-22T11:05:11.237Z,1.15
2023-04-22T11:06:11.126Z,1.15
2023-04-22T11:07:11.116Z,1.14
2023-04-22T11:08:11.122Z,1.13
2023-04-22T11:09:11.108Z,1.14
2023-04-22T11:10:11.117Z,1.16
2023-04-22T11:11:11.139Z,1.16
2023-04-22T11:12:11.125Z,1.14
2023-04-22T11:13:11.139Z,1.16
2023-04-22T11:14:11.109Z,1.14
2023-04-22T11:15:11.132Z,1.15
2023-04-22T11:16:11.324Z,1.14
2023-04-22T11:17:11.125Z,1.15
2023-04-22T11:18:11.135Z,1.13
2023-04-22T11:19:11.111Z,1.15
2023-04-22T11:20:11.115Z,1.14
2023-04-22T11:21:11.130Z,1.14
2023-04-22T11:22:11.134Z,1.14
2023-04-22T11:23:11.144Z,1.14
2023-04-22T11:24:11.144Z,1.14
2023-04-22T11:25:11.128Z,1.11
2023-04-22T11:26:11.142Z,1.13
2023-04-22T11:27:11.100Z,1.13
2023-04-22T11:28:11.108Z,1.12
2023-04-22T11:29:11.124Z,1.13
2023-04-22T11:30:11.122Z,1.14
2023-04-22T11:31:11.148Z,1.12
2023-04-22T11:32:11.139Z,1.12
2023-04-22T11:33:11.111Z,1.13
2023-04-22T11:34:11.089Z,1.11
2023-04-22T11:35:11.103Z,1.11
2023-04-22T11:36:11.138Z,1.13
2023-04-22T11:37:11.125Z,1.14
2023-04-22T11:38:11.137Z,1.11
2023-04-22T11:39:11.105Z,1.12
2023-04-22T11:40:28.063Z,1.11
2023-04-22T11:41:12.109Z,1.11
2023-04-22T11:42:11.099Z,1.11
2023-04-22T11:43:11.107Z,1.10
2023-04-22T11:44:11.099Z,1.11
2023-04-22T11:45:11.070Z,1.12
2023-04-22T11:46:11.142Z,1.11
2023-04-22T11:47:11.062Z,1.10
2023-04-22T11:48:11.124Z,1.10
2023-04-22T11:49:11.091Z,1.09
2023-04-22T11:50:11.068Z,1.10
2023-04-22T11:51:11.025Z,1.10
2023-04-22T11:52:11.077Z,1.10
2023-04-22T11:53:11.020Z,1.11
2023-04-22T11:54:11.020Z,1.09
2023-04-22T11:55:11.023Z,1.11
2023-04-22T11:56:11.000Z,1.10
2023-04-22T11:57:10.994Z,1.09
2023-04-22T11:58:10.969Z,1.08
2023-04-22T11:59:10.967Z,1.10
2023-04-22T12:00:10.983Z,1.09
2023-04-22T12:01:10.972Z,1.11
2023-04-22T12:02:11.062Z,1.08
2023-04-22T12:03:12.663Z,1.10
2023-04-22T12:04:11.070Z,1.08
2023-04-22T12:05:10.944Z,1.09
2023-04-22T12:06:10.971Z,1.08
2023-04-22T12:07:10.907Z,1.10
2023-04-22T12:08:10.909Z,1.10
2023-04-22T12:09:12.052Z,1.08
2023-04-22T12:10:10.915Z,1.09
2023-04-22T12:11:10.894Z,1.08
2023-04-22T12:12:10.913Z,1.08
2023-04-22T12:13:10.875Z,1.08
2023-04-22T12:14:10.885Z,1.06
2023-04-22T12:15:13.443Z,1.08
2023-04-22T12:16:10.862Z,1.08
2023-04-22T12:17:10.945Z,1.08
2023-04-22T12:18:10.827Z,1.07
2023-04-22T12:19:10.845Z,1.08
2023-04-22T12:20:10.846Z,1.06
2023-04-22T12:21:10.835Z,1.08
2023-04-22T12:22:10.813Z,1.08
2023-04-22T12:23:10.817Z,1.07
2023-04-22T12:24:10.772Z,1.09
2023-04-22T12:25:10.772Z,1.08
2023-04-22T12:26:10.806Z,1.07
2023-04-22T12:27:10.766Z,1.07
2023-04-22T12:28:10.754Z,1.06
2023-04-22T12:29:10.758Z,1.07
2023-04-22T12:30:10.748Z,1.06
2023-04-22T12:31:10.798Z,1.05
2023-04-22T12:32:10.735Z,1.06
2023-04-22T12:33:10.751Z,1.05
2023-04-22T12:34:10.815Z,1.04
2023-04-22T12:35:10.753Z,1.04
2023-04-22T12:36:10.735Z,1.05
2023-04-22T12:37:10.707Z,1.05
2023-04-22T12:38:10.711Z,1.03
2023-04-22T12:39:10.680Z,1.05
2023-04-22T12:40:10.682Z,1.04
2023-04-22T12:41:10.711Z,1.05
2023-04-22T12:42:10.675Z,1.04
2023-04-22T12:43:10.678Z,1.03
2023-04-22T12:44:10.645Z,1.03
2023-04-22T12:45:10.664Z,1.04
2023-04-22T12:46:10.668Z,1.04
2023-04-22T12:47:10.638Z,1.03
2023-04-22T12:48:10.619Z,1.03
2023-04-22T12:49:10.618Z,1.04
2023-04-22T12:50:10.661Z,1.02
2023-04-22T12:51:10.631Z,1.01
2023-04-22T12:52:10.619Z,1.02
2023-04-22T12:53:10.584Z,1.02
2023-04-22T12:54:10.589Z,1.04
2023-04-22T12:55:10.556Z,1.02
2023-04-22T12:56:10.600Z,1.02
2023-04-22T12:57:10.575Z,1.01
2023-04-22T12:58:10.561Z,1.01
2023-04-22T12:59:10.563Z,1.04
2023-04-22T13:00:10.633Z,1.02
2023-04-22T13:01:17.625Z,1.01
2023-04-22T13:02:10.591Z,1.02
2023-04-22T13:03:10.620Z,1.02
2023-04-22T13:04:10.571Z,1.02
2023-04-22T13:05:10.512Z,1.02
2023-04-22T13:06:10.523Z,1.01
2023-04-22T13:07:10.502Z,1.01
2023-04-22T13:08:10.474Z,1.03
2023-04-22T13:09:10.470Z,1.00
2023-04-22T13:10:10.571Z,1.00
2023-04-22T13:11:10.498Z,1.00
2023-04-22T13:12:10.450Z,1.00
2023-04-22T13:13:18.483Z,1.01
2023-04-22T13:14:11.457Z,1.01
2023-04-22T13:15:10.433Z,1.01
2023-04-22T13:16:10.499Z,1.00
2023-04-22T13:17:10.439Z,1.01
2023-04-22T13:18:10.429Z,1.01
2023-04-22T13:19:10.406Z,1.01